Time;durP1;ratioP1;P1;durP2;ratioP2;P2;SDS_P1;SDS_P2;PMS_P1;PMS_P2;Temp;Humidity;BMP_temperature;BMP_pressure;BME280_temperature;BME280_humidity;BME280_pressure;Samples;Min_cycle;Max_cycle;Signal;HPM_P1;HPM_P2
2023/05/29 00:01:28;;;;;;;4.80;4.30;;;23.30;78.70;;;;;;6011609;29;95382;-66
2023/05/29 00:04:30;;;;;;;4.85;4.07;;;23.30;78.80;;;;;;6008513;29;94231;-67
2023/05/29 00:07:33;;;;;;;4.18;3.78;;;23.30;78.80;;;;;;6010090;29;94224;-66
2023/05/29 00:10:37;;;;;;;3.90;3.60;;;23.30;78.80;;;;;;6012009;29;94474;-67
2023/05/29 00:13:38;;;;;;;4.38;3.97;;;23.30;78.80;;;;;;6006313;29;93391;-67
2023/05/29 00:16:43;;;;;;;4.60;4.10;;;23.30;78.80;;;;;;6004158;29;94160;-67
2023/05/29 00:19:45;;;;;;;5.90;4.55;;;23.30;78.80;;;;;;6010650;29;93930;-67
2023/05/29 00:22:47;;;;;;;5.13;4.20;;;23.30;78.70;;;;;;6007107;29;93719;-66
2023/05/29 00:25:49;;;;;;;4.28;3.88;;;23.30;78.70;;;;;;6006941;29;94096;-66
2023/05/29 00:28:51;;;;;;;4.60;4.10;;;23.30;78.80;;;;;;6011640;29;94165;-66
2023/05/29 00:31:55;;;;;;;4.72;4.00;;;23.30;78.80;;;;;;6007091;29;95035;-66
2023/05/29 00:34:57;;;;;;;4.53;4.13;;;23.30;78.80;;;;;;6012626;29;94389;-67
2023/05/29 00:37:59;;;;;;;4.63;4.18;;;23.30;78.80;;;;;;5999277;29;94640;-66
2023/05/29 00:41:02;;;;;;;5.07;4.47;;;23.30;78.80;;;;;;6016051;29;94417;-66
2023/05/29 00:44:04;;;;;;;4.95;4.35;;;23.30;78.80;;;;;;5989675;29;94303;-67
2023/05/29 00:47:08;;;;;;;4.50;4.10;;;23.30;78.70;;;;;;5999666;29;93011;-66
2023/05/29 00:50:13;;;;;;;4.38;3.75;;;23.30;78.80;;;;;;6007781;29;94104;-66
2023/05/29 00:53:16;;;;;;;4.50;4.10;;;23.30;78.80;;;;;;6004869;29;93786;-66
2023/05/29 00:56:20;;;;;;;4.55;4.15;;;23.30;78.90;;;;;;6009440;29;95089;-67
2023/05/29 00:59:23;;;;;;;5.07;4.20;;;23.30;78.90;;;;;;6020964;29;94238;-66
2023/05/29 01:02:29;;;;;;;5.80;4.70;;;23.30;79.80;;;;;;6006194;29;95016;-66
2023/05/29 01:05:32;;;;;;;5.25;4.40;;;23.30;78.80;;;;;;6005335;29;94176;-67
2023/05/29 01:08:34;;;;;;;4.55;3.80;;;23.30;78.80;;;;;;6005847;29;94209;-67
2023/05/29 01:11:47;;;;;;;4.32;3.92;;;23.30;78.80;;;;;;6004287;29;94294;-67
2023/05/29 01:15:01;;;;;;;4.75;4.20;;;23.30;78.70;;;;;;6011474;29;94723;-66
2023/05/29 01:18:20;;;;;;;4.85;3.80;;;23.30;78.80;;;;;;6012508;29;94819;-66
2023/05/29 01:21:28;;;;;;;4.82;4.03;;;23.30;78.80;;;;;;6010459;29;94126;-67
2023/05/29 01:24:39;;;;;;;5.95;4.60;;;23.30;78.80;;;;;;6012055;29;93580;-66
2023/05/29 01:27:44;;;;;;;7.25;4.75;;;23.20;78.70;;;;;;5997966;29;94251;-67
2023/05/29 01:30:46;;;;;;;4.63;4.00;;;23.30;78.80;;;;;;6013642;29;94210;-66
2023/05/29 01:33:53;;;;;;;5.00;4.50;;;23.30;78.80;;;;;;6013724;29;95147;-67
2023/05/29 01:36:55;;;;;;;4.65;4.18;;;23.30;78.80;;;;;;6019085;29;94016;-66
2023/05/29 01:39:57;;;;;;;4.32;3.92;;;23.20;78.70;;;;;;6024463;29;94080;-66
2023/05/29 01:43:01;;;;;;;4.07;3.67;;;23.30;78.80;;;;;;6016817;29;94227;-67
2023/05/29 01:46:03;;;;;;;5.13;4.20;;;23.30;78.80;;;;;;6020525;29;94175;-67
2023/05/29 01:49:06;;;;;;;4.35;3.95;;;23.20;78.80;;;;;;6003666;29;94108;-66
2023/05/29 01:52:08;;;;;;;4.00;3.63;;;23.30;78.90;;;;;;6014013;29;96327;-66
2023/05/29 01:55:10;;;;;;;4.00;3.63;;;23.30;78.80;;;;;;6025922;29;93495;-66
2023/05/29 01:58:15;;;;;;;4.38;3.97;;;23.20;78.70;;;;;;6014551;29;94538;-67
2023/05/29 02:01:17;;;;;;;4.60;4.10;;;23.30;78.80;;;;;;6013714;29;94135;-66
2023/05/29 02:04:19;;;;;;;4.43;4.03;;;23.20;78.70;;;;;;6008042;29;95119;-67
2023/05/29 02:07:21;;;;;;;4.18;3.78;;;23.20;78.60;;;;;;6007567;29;94326;-66
2023/05/29 02:10:23;;;;;;;4.57;3.83;;;23.20;78.60;;;;;;6018748;29;94177;-67
2023/05/29 02:13:26;;;;;;;4.82;4.18;;;23.30;78.70;;;;;;6030169;29;94522;-67
2023/05/29 02:16:28;;;;;;;4.40;4.00;;;23.20;78.60;;;;;;6024179;29;94176;-66
2023/05/29 02:19:30;;;;;;;4.13;3.80;;;23.20;78.60;;;;;;6007532;29;94140;-67
2023/05/29 02:22:32;;;;;;;4.30;3.90;;;23.20;78.60;;;;;;6000155;29;94022;-67
2023/05/29 02:25:35;;;;;;;4.25;3.85;;;23.20;78.60;;;;;;6011740;29;93415;-66
2023/05/29 02:28:38;;;;;;;4.57;4.15;;;23.20;78.60;;;;;;6004563;29;94113;-67
2023/05/29 02:31:40;;;;;;;4.97;4.20;;;23.20;78.70;;;;;;6011691;29;94466;-66
2023/05/29 02:34:42;;;;;;;3.90;3.60;;;23.20;78.70;;;;;;6004323;29;95098;-67
2023/05/29 02:37:44;;;;;;;4.22;3.83;;;23.20;78.70;;;;;;6008841;29;94123;-67
2023/05/29 02:40:46;;;;;;;4.13;3.72;;;23.20;78.70;;;;;;6011538;29;94115;-66
2023/05/29 02:43:50;;;;;;;4.82;4.07;;;23.20;78.80;;;;;;6020277;29;94194;-67
2023/05/29 02:46:52;;;;;;;3.95;3.55;;;23.20;78.80;;;;;;6002933;29;94511;-66
2023/05/29 02:49:54;;;;;;;5.45;4.07;;;23.20;78.60;;;;;;6011884;29;94205;-66
2023/05/29 02:52:56;;;;;;;4.55;3.97;;;23.20;78.70;;;;;;6004742;29;93106;-66
2023/05/29 02:55:58;;;;;;;4.15;3.75;;;23.20;78.70;;;;;;6007986;29;92753;-67
2023/05/29 02:59:01;;;;;;;4.15;3.75;;;23.20;78.60;;;;;;6023290;29;94287;-66
2023/05/29 03:02:03;;;;;;;4.35;3.95;;;23.20;78.70;;;;;;6007050;29;94155;-66
2023/05/29 03:05:06;;;;;;;4.38;3.97;;;23.20;78.60;;;;;;6007453;29;95056;-67
2023/05/29 03:08:08;;;;;;;4.20;3.80;;;23.30;78.70;;;;;;6016238;29;94327;-67
2023/05/29 03:11:10;;;;;;;4.38;3.97;;;23.20;78.60;;;;;;6022714;29;94127;-67
2023/05/29 03:14:14;;;;;;;4.40;3.70;;;23.20;78.60;;;;;;6022769;29;94308;-66
2023/05/29 03:17:16;;;;;;;4.07;3.67;;;23.20;78.60;;;;;;6011177;29;94507;-66
2023/05/29 03:20:18;;;;;;;4.30;3.80;;;23.20;78.60;;;;;;6010283;29;94128;-67
2023/05/29 03:23:20;;;;;;;4.40;3.83;;;23.20;78.60;;;;;;6005912;29;93251;-66
2023/05/29 03:26:22;;;;;;;4.05;3.65;;;23.20;78.60;;;;;;6005245;29;93338;-66
2023/05/29 03:29:25;;;;;;;5.10;3.97;;;23.20;78.60;;;;;;6004216;29;94137;-66
2023/05/29 03:32:27;;;;;;;4.88;3.70;;;23.10;78.60;;;;;;6021085;29;94148;-66
2023/05/29 03:35:29;;;;;;;4.28;3.65;;;23.10;78.60;;;;;;6019051;29;95157;-66
2023/05/29 03:38:31;;;;;;;3.72;3.35;;;23.20;78.70;;;;;;6009462;29;93837;-66
2023/05/29 03:41:33;;;;;;;4.55;3.90;;;23.10;78.60;;;;;;6006230;29;94156;-66
2023/05/29 03:44:37;;;;;;;5.00;3.67;;;23.10;78.60;;;;;;6020894;29;94175;-65
2023/05/29 03:47:39;;;;;;;4.35;3.95;;;23.20;78.60;;;;;;6008877;29;94236;-66
2023/05/29 03:50:40;;;;;;;4.47;3.85;;;23.20;78.50;;;;;;6005419;29;93588;-66
2023/05/29 03:53:43;;;;;;;5.15;3.60;;;23.20;78.50;;;;;;6017140;29;94193;-66
2023/05/29 03:56:45;;;;;;;4.05;3.70;;;23.20;78.50;;;;;;6001206;29;93731;-67
2023/05/29 03:59:48;;;;;;;4.38;3.72;;;23.10;78.40;;;;;;5991473;29;94894;-66
2023/05/29 04:02:51;;;;;;;4.60;3.55;;;23.20;78.40;;;;;;6018368;29;93943;-66
2023/05/29 04:05:53;;;;;;;5.18;4.40;;;23.20;78.40;;;;;;6024073;29;93896;-66
2023/05/29 04:08:55;;;;;;;4.60;4.00;;;23.10;78.40;;;;;;5999780;29;94050;-66
2023/05/29 04:11:57;;;;;;;6.22;4.80;;;23.20;78.40;;;;;;6004976;29;94084;-66
2023/05/29 04:15:00;;;;;;;5.05;4.25;;;23.10;78.40;;;;;;6013535;29;94068;-66
2023/05/29 04:18:02;;;;;;;4.25;3.85;;;23.20;78.50;;;;;;6000473;29;94112;-66
2023/05/29 04:21:05;;;;;;;4.97;3.90;;;23.20;78.50;;;;;;6008064;29;94100;-66
2023/05/29 04:24:07;;;;;;;3.90;3.60;;;23.20;78.50;;;;;;6017144;29;94119;-66
2023/05/29 04:27:13;;;;;;;4.35;3.90;;;23.10;78.40;;;;;;6010420;29;93912;-66
2023/05/29 04:30:17;;;;;;;3.90;3.47;;;23.20;78.50;;;;;;6001140;29;94429;-67
2023/05/29 04:33:20;;;;;;;4.13;3.72;;;23.20;78.50;;;;;;6002801;29;94472;-66
2023/05/29 04:36:25;;;;;;;4.93;4.10;;;23.20;78.50;;;;;;5998507;29;95311;-66
2023/05/29 04:39:27;;;;;;;4.10;3.70;;;23.20;78.50;;;;;;6004155;29;94099;-66
2023/05/29 04:42:33;;;;;;;3.90;3.55;;;23.20;78.40;;;;;;6001336;29;94173;-67
2023/05/29 04:45:37;;;;;;;4.50;4.10;;;23.20;78.40;;;;;;6005497;29;94235;-66
2023/05/29 04:48:40;;;;;;;4.82;3.60;;;23.20;78.40;;;;;;6005991;29;94285;-67
2023/05/29 04:51:42;;;;;;;3.92;3.53;;;23.30;78.50;;;;;;6010673;29;94129;-66
2023/05/29 04:54:44;;;;;;;4.15;3.75;;;23.20;78.30;;;;;;6000814;29;94138;-67
2023/05/29 04:57:46;;;;;;;6.10;4.55;;;23.20;78.30;;;;;;6006838;29;92590;-66
2023/05/29 05:00:49;;;;;;;5.18;4.20;;;23.20;78.30;;;;;;6001251;29;93981;-66
2023/05/29 05:03:54;;;;;;;4.47;3.97;;;23.20;78.30;;;;;;6000063;29;94204;-66
2023/05/29 05:06:56;;;;;;;4.03;3.63;;;23.20;78.30;;;;;;5995617;29;95145;-66
2023/05/29 05:09:58;;;;;;;5.60;4.07;;;23.20;78.30;;;;;;6011649;29;94307;-66
2023/05/29 05:13:02;;;;;;;4.10;3.70;;;23.30;78.40;;;;;;6015738;29;94457;-66
2023/05/29 05:16:06;;;;;;;3.67;3.38;;;23.30;78.40;;;;;;6020221;29;94131;-66
2023/05/29 05:19:14;;;;;;;4.57;4.05;;;23.20;78.30;;;;;;6020756;29;94199;-66
2023/05/29 05:22:16;;;;;;;4.20;3.80;;;23.20;78.30;;;;;;6016072;29;94088;-66
2023/05/29 05:25:18;;;;;;;4.22;3.83;;;23.30;78.40;;;;;;6003017;29;94195;-66
2023/05/29 05:28:21;;;;;;;4.75;3.83;;;23.30;78.30;;;;;;6010016;29;93448;-66
2023/05/29 05:31:25;;;;;;;4.07;3.72;;;23.30;78.30;;;;;;6012489;29;94168;-66
2023/05/29 05:34:27;;;;;;;4.90;4.00;;;23.30;78.30;;;;;;6020449;29;94142;-67
2023/05/29 05:37:28;;;;;;;5.03;4.05;;;23.30;78.20;;;;;;6012679;29;95044;-66
2023/05/29 05:40:31;;;;;;;4.18;3.78;;;23.30;78.10;;;;;;6003508;29;94164;-66
2023/05/29 05:43:33;;;;;;;5.13;4.47;;;23.30;78.10;;;;;;6010380;29;94371;-66
2023/05/29 05:46:36;;;;;;;4.57;4.00;;;23.30;78.10;;;;;;6001178;29;94112;-66
2023/05/29 05:49:38;;;;;;;4.78;4.10;;;23.30;78.10;;;;;;6022683;29;93106;-66
2023/05/29 05:52:40;;;;;;;4.45;4.05;;;23.30;78.20;;;;;;6011470;29;94115;-66
2023/05/29 05:55:42;;;;;;;4.22;3.80;;;23.30;78.30;;;;;;6016180;29;94526;-66
2023/05/29 05:58:44;;;;;;;4.60;4.20;;;23.30;78.30;;;;;;6020992;29;93346;-66
2023/05/29 06:01:47;;;;;;;4.40;4.00;;;23.30;78.30;;;;;;6014613;29;93959;-66
2023/05/29 06:04:49;;;;;;;4.60;4.10;;;23.30;78.40;;;;;;5995156;29;94335;-66
2023/05/29 06:07:51;;;;;;;4.47;4.07;;;23.40;78.50;;;;;;5996822;29;95095;-66
2023/05/29 06:10:53;;;;;;;5.00;4.40;;;23.40;79.40;;;;;;5999545;29;94119;-66
2023/05/29 06:13:55;;;;;;;4.60;4.20;;;23.40;78.60;;;;;;6002119;29;94171;-66
2023/05/29 06:16:59;;;;;;;4.32;3.92;;;23.40;78.70;;;;;;6020450;29;94120;-66
2023/05/29 06:20:01;;;;;;;4.50;4.10;;;23.40;78.80;;;;;;5999428;29;94678;-67
2023/05/29 06:23:03;;;;;;;4.47;4.05;;;23.40;78.80;;;;;;6007885;29;94318;-66
2023/05/29 06:26:05;;;;;;;4.80;4.30;;;23.40;78.80;;;;;;6014388;29;94241;-67
2023/05/29 06:29:07;;;;;;;5.28;4.60;;;23.40;78.80;;;;;;6014137;29;93485;-66
2023/05/29 06:32:11;;;;;;;5.43;4.55;;;23.40;78.70;;;;;;6019882;29;94214;-67
2023/05/29 06:35:14;;;;;;;4.15;3.85;;;23.40;78.70;;;;;;6008765;29;94205;-66
2023/05/29 06:38:16;;;;;;;5.35;4.50;;;23.40;78.80;;;;;;6013285;29;95566;-66
2023/05/29 06:41:18;;;;;;;4.93;4.43;;;23.40;78.70;;;;;;6022243;29;94400;-66
2023/05/29 06:44:20;;;;;;;4.50;4.10;;;23.40;78.80;;;;;;6021821;29;94198;-66
2023/05/29 06:47:23;;;;;;;4.95;4.55;;;23.40;78.80;;;;;;6016481;29;94132;-66
2023/05/29 06:50:25;;;;;;;4.38;3.97;;;23.40;78.80;;;;;;6012884;29;94712;-67
2023/05/29 06:53:27;;;;;;;5.53;4.55;;;23.40;78.80;;;;;;6008883;29;94166;-66
2023/05/29 06:56:30;;;;;;;4.70;4.30;;;23.40;78.80;;;;;;6008367;29;94225;-66
2023/05/29 06:59:32;;;;;;;4.53;4.13;;;23.40;78.80;;;;;;6016756;29;93414;-66
2023/05/29 07:02:35;;;;;;;4.85;4.20;;;23.40;78.70;;;;;;6012933;29;93236;-66
2023/05/29 07:05:37;;;;;;;5.20;4.70;;;23.40;78.80;;;;;;6016696;29;94392;-67
2023/05/29 07:08:39;;;;;;;5.30;4.63;;;23.40;78.80;;;;;;6013349;29;95072;-66
2023/05/29 07:11:41;;;;;;;4.88;4.45;;;23.40;78.90;;;;;;6011968;29;94173;-66
2023/05/29 07:14:44;;;;;;;6.05;4.93;;;23.40;78.80;;;;;;6013078;29;94146;-66
2023/05/29 07:17:47;;;;;;;4.93;4.45;;;23.40;78.80;;;;;;5997981;29;94472;-66
2023/05/29 07:20:49;;;;;;;4.55;4.13;;;23.40;78.80;;;;;;5999729;29;96248;-67
2023/05/29 07:23:51;;;;;;;4.97;4.47;;;23.50;78.90;;;;;;6014206;29;94141;-66
2023/05/29 07:26:54;;;;;;;5.05;4.55;;;23.40;78.80;;;;;;6027743;29;94066;-67
2023/05/29 07:29:56;;;;;;;5.70;4.90;;;23.40;78.80;;;;;;6001664;29;93275;-66
2023/05/29 07:33:00;;;;;;;4.60;4.20;;;23.40;78.80;;;;;;6014510;29;94448;-67
2023/05/29 07:36:02;;;;;;;5.68;4.68;;;23.40;78.80;;;;;;6005159;29;94195;-67
2023/05/29 07:39:05;;;;;;;5.07;4.57;;;23.40;78.80;;;;;;6008460;29;95107;-67
2023/05/29 07:42:07;;;;;;;5.15;4.65;;;23.40;78.80;;;;;;6003227;29;94163;-67
2023/05/29 07:45:11;;;;;;;4.97;4.43;;;23.40;78.80;;;;;;6023343;29;94183;-66
2023/05/29 07:48:14;;;;;;;4.97;4.50;;;23.40;78.80;;;;;;6001787;29;94119;-66
2023/05/29 07:51:16;;;;;;;5.20;4.70;;;23.40;78.80;;;;;;6012529;29;94172;-66
2023/05/29 07:54:20;;;;;;;5.28;4.43;;;23.40;78.80;;;;;;6007401;29;94122;-66
2023/05/29 07:57:22;;;;;;;5.55;4.80;;;23.40;78.70;;;;;;6011413;29;94217;-67
2023/05/29 08:00:24;;;;;;;6.28;4.63;;;23.40;78.50;;;;;;5990458;29;93340;-66
2023/05/29 08:03:27;;;;;;;6.05;4.40;;;23.40;78.50;;;;;;6011929;29;94155;-67
2023/05/29 08:06:32;;;;;;;4.90;4.40;;;23.40;78.40;;;;;;6003646;29;94141;-66
2023/05/29 08:09:34;;;;;;;5.68;4.35;;;23.40;78.60;;;;;;6000961;29;95667;-67
2023/05/29 08:12:36;;;;;;;5.38;4.63;;;23.50;78.60;;;;;;6004314;29;94627;-67
2023/05/29 08:15:38;;;;;;;5.05;4.55;;;23.40;78.60;;;;;;6025151;29;94140;-66
2023/05/29 08:18:41;;;;;;;5.82;4.70;;;23.40;78.70;;;;;;6006012;29;94224;-67
2023/05/29 08:21:43;;;;;;;5.07;4.38;;;23.50;78.80;;;;;;5998815;29;94144;-66
2023/05/29 08:24:45;;;;;;;5.60;5.00;;;23.40;78.80;;;;;;6007402;29;94195;-66
2023/05/29 08:27:47;;;;;;;4.78;4.20;;;23.40;78.80;;;;;;6003093;29;94070;-66
2023/05/29 08:30:49;;;;;;;4.70;4.25;;;23.50;78.80;;;;;;6013730;29;93450;-66
2023/05/29 08:33:53;;;;;;;5.00;4.60;;;23.40;78.80;;;;;;6017078;29;94174;-67
2023/05/29 08:36:55;;;;;;;4.85;4.32;;;23.40;78.80;;;;;;6004771;29;94242;-66
2023/05/29 08:39:57;;;;;;;5.10;4.60;;;23.40;78.80;;;;;;6007315;29;95170;-66
2023/05/29 08:43:03;;;;;;;5.00;4.50;;;23.40;78.80;;;;;;6010248;29;92998;-66
2023/05/29 08:46:07;;;;;;;5.57;4.70;;;23.40;78.80;;;;;;6000627;29;94166;-65
2023/05/29 08:49:15;;;;;;;5.45;4.15;;;23.40;78.70;;;;;;6008515;29;94501;-66
2023/05/29 08:52:19;;;;;;;5.05;4.50;;;23.40;78.60;;;;;;6021501;29;94167;-66
2023/05/29 08:55:21;;;;;;;5.40;4.82;;;23.40;78.60;;;;;;6005247;29;94132;-67
2023/05/29 08:58:24;;;;;;;5.07;4.57;;;23.40;78.50;;;;;;5995700;29;94395;-67
2023/05/29 09:01:26;;;;;;;4.75;4.28;;;23.40;78.50;;;;;;6009761;29;93772;-66
2023/05/29 09:04:31;;;;;;;5.43;4.70;;;23.40;78.50;;;;;;6011366;29;93298;-67
2023/05/29 09:07:33;;;;;;;4.50;4.10;;;23.40;78.50;;;;;;6010156;29;94078;-66
2023/05/29 09:10:36;;;;;;;4.85;4.35;;;23.40;78.60;;;;;;6004494;29;94035;-66
2023/05/29 09:13:38;;;;;;;5.43;4.90;;;23.40;78.90;;;;;;6020340;29;94472;-66
2023/05/29 09:16:43;;;;;;;5.03;4.53;;;23.40;78.90;;;;;;6017172;29;94064;-67
2023/05/29 09:19:49;;;;;;;5.75;4.38;;;23.40;79.10;;;;;;6022623;29;94118;-66
2023/05/29 09:22:55;;;;;;;5.20;4.70;;;23.40;79.10;;;;;;6005485;29;92222;-66
2023/05/29 09:25:57;;;;;;;5.43;4.88;;;23.40;79.00;;;;;;6005920;29;93983;-66
2023/05/29 09:28:59;;;;;;;5.82;4.30;;;23.40;79.00;;;;;;6008827;29;94208;-66
2023/05/29 09:32:01;;;;;;;4.40;4.00;;;23.40;78.90;;;;;;6011182;29;93394;-66
2023/05/29 09:35:05;;;;;;;5.85;4.60;;;23.40;78.90;;;;;;5999265;29;94240;-67
2023/05/29 09:38:08;;;;;;;5.18;4.20;;;23.40;78.80;;;;;;6008682;29;94220;-67
2023/05/29 09:41:10;;;;;;;4.72;4.32;;;23.40;78.90;;;;;;6003830;29;95071;-66
2023/05/29 09:44:14;;;;;;;5.30;4.43;;;23.40;79.00;;;;;;6005071;29;94187;-67
2023/05/29 09:47:17;;;;;;;5.18;4.68;;;23.40;79.10;;;;;;6005705;29;94646;-66
2023/05/29 09:50:26;;;;;;;6.05;4.57;;;23.40;78.90;;;;;;6022033;29;94159;-67
2023/05/29 09:53:29;;;;;;;5.20;4.57;;;23.40;78.70;;;;;;6013486;29;94250;-66
2023/05/29 09:56:32;;;;;;;4.97;4.45;;;23.40;78.60;;;;;;6014739;29;94208;-66
2023/05/29 09:59:36;;;;;;;5.78;4.32;;;23.40;78.70;;;;;;6018840;29;94615;-66
2023/05/29 10:02:39;;;;;;;5.00;4.50;;;23.40;78.90;;;;;;6007533;29;93276;-66
2023/05/29 10:05:44;;;;;;;4.90;4.35;;;23.40;78.90;;;;;;6026222;29;94454;-66
2023/05/29 10:08:48;;;;;;;5.18;4.68;;;23.40;78.80;;;;;;6021849;29;94174;-66
2023/05/29 10:11:53;;;;;;;5.47;4.60;;;23.40;78.60;;;;;;6000837;29;95014;-65
2023/05/29 10:14:57;;;;;;;4.63;4.22;;;23.40;78.60;;;;;;6006122;29;94201;-66
2023/05/29 10:18:04;;;;;;;4.88;4.47;;;23.40;78.60;;;;;;6003359;29;93296;-66
2023/05/29 10:21:11;;;;;;;5.10;4.25;;;23.40;78.60;;;;;;5998062;29;94418;-67
2023/05/29 10:24:14;;;;;;;5.20;4.40;;;23.40;78.60;;;;;;6013142;29;94250;-66
2023/05/29 10:27:16;;;;;;;4.80;4.30;;;23.40;78.50;;;;;;6017201;29;94149;-67
2023/05/29 10:30:31;;;;;;;5.10;4.25;;;23.40;78.30;;;;;;6013423;29;94323;-66
2023/05/29 10:33:46;;;;;;;5.63;4.22;;;23.40;78.10;;;;;;6012991;29;94708;-67
2023/05/29 10:36:56;;;;;;;5.50;4.38;;;23.40;78.10;;;;;;6013218;29;94193;-66
2023/05/29 10:40:06;;;;;;;4.78;4.28;;;23.40;78.30;;;;;;6006339;29;94466;-66
2023/05/29 10:43:10;;;;;;;6.60;4.68;;;23.40;78.30;;;;;;6003209;29;95159;-66
2023/05/29 10:46:12;;;;;;;5.18;4.50;;;23.40;78.10;;;;;;6011180;29;93352;-66
2023/05/29 10:49:17;;;;;;;5.18;4.25;;;23.40;77.90;;;;;;6012476;29;94160;-66
2023/05/29 10:52:22;;;;;;;4.95;4.45;;;23.40;77.60;;;;;;6008146;29;94404;-66
2023/05/29 10:55:35;;;;;;;4.72;4.32;;;23.40;77.60;;;;;;6012570;29;93955;-67
2023/05/29 10:58:38;;;;;;;4.70;4.30;;;23.40;77.70;;;;;;6013548;29;94159;-66
2023/05/29 11:01:40;;;;;;;4.95;4.45;;;23.40;77.70;;;;;;6034129;29;94118;-66
2023/05/29 11:04:42;;;;;;;5.05;4.38;;;23.40;77.90;;;;;;6013314;29;93331;-66
2023/05/29 11:07:54;;;;;;;4.47;4.07;;;23.40;77.90;;;;;;6019058;29;94161;-67
2023/05/29 11:11:00;;;;;;;4.50;4.10;;;23.40;77.90;;;;;;6012625;29;94112;-67
2023/05/29 11:14:05;;;;;;;4.65;4.15;;;23.40;77.90;;;;;;5995493;29;95095;-66
2023/05/29 11:17:07;;;;;;;4.53;4.13;;;23.40;78.10;;;;;;6011295;29;94122;-66
2023/05/29 11:20:25;;;;;;;5.47;4.40;;;23.40;78.00;;;;;;6010607;29;94301;-67
2023/05/29 11:23:32;;;;;;;5.03;4.22;;;23.40;77.90;;;;;;6003046;29;94097;-66
2023/05/29 11:26:37;;;;;;;4.95;4.43;;;23.40;77.80;;;;;;6020605;29;94089;-67
2023/05/29 11:29:39;;;;;;;4.70;4.30;;;23.40;77.80;;;;;;6017782;29;94128;-66
2023/05/29 11:32:45;;;;;;;4.93;4.43;;;23.40;77.80;;;;;;6030995;29;93902;-67
2023/05/29 11:35:49;;;;;;;5.13;4.63;;;23.40;77.90;;;;;;6006542;29;93501;-67
2023/05/29 11:38:54;;;;;;;5.95;4.82;;;23.40;77.90;;;;;;6011718;29;94651;-66
2023/05/29 11:41:56;;;;;;;5.00;4.50;;;23.40;77.90;;;;;;6012773;29;93405;-66
2023/05/29 11:45:11;;;;;;;5.13;4.25;;;23.40;77.60;;;;;;6008731;29;95080;-67
2023/05/29 11:48:13;;;;;;;4.95;4.40;;;23.40;77.50;;;;;;5998708;29;94462;-67
2023/05/29 11:51:16;;;;;;;5.82;4.47;;;23.40;77.60;;;;;;6010701;29;94795;-67
2023/05/29 11:54:21;;;;;;;5.10;4.40;;;23.40;77.60;;;;;;6007038;29;94148;-66
2023/05/29 11:57:24;;;;;;;5.82;4.53;;;23.40;77.60;;;;;;6014965;29;94152;-66
2023/05/29 12:00:27;;;;;;;5.28;4.50;;;23.40;77.60;;;;;;6012611;29;95789;-66
2023/05/29 12:03:29;;;;;;;4.70;4.30;;;23.40;77.70;;;;;;6011363;29;94367;-67
2023/05/29 12:06:36;;;;;;;5.07;4.38;;;23.40;77.70;;;;;;6012265;29;93487;-67
2023/05/29 12:09:40;;;;;;;5.28;4.78;;;23.40;77.70;;;;;;6002935;29;95236;-67
2023/05/29 12:12:42;;;;;;;4.75;4.35;;;23.40;77.80;;;;;;6010585;29;94139;-67
2023/05/29 12:15:44;;;;;;;6.15;4.32;;;23.40;77.80;;;;;;6010707;29;95228;-67
2023/05/29 12:18:47;;;;;;;5.22;3.92;;;23.40;77.80;;;;;;6009195;29;94747;-67
2023/05/29 12:21:49;;;;;;;4.88;4.22;;;23.40;77.70;;;;;;5994823;29;94242;-67
2023/05/29 12:24:53;;;;;;;4.25;3.85;;;23.40;77.90;;;;;;6007292;29;94732;-67
2023/05/29 12:27:57;;;;;;;4.45;4.05;;;23.40;78.10;;;;;;6019751;29;94115;-68
2023/05/29 12:31:00;;;;;;;4.50;4.10;;;23.40;78.20;;;;;;6028875;29;94112;-67
2023/05/29 12:34:03;;;;;;;6.03;4.40;;;23.40;78.20;;;;;;6010340;29;94092;-68
2023/05/29 12:37:09;;;;;;;4.57;4.18;;;23.40;78.10;;;;;;6001026;29;92240;-67
2023/05/29 12:40:16;;;;;;;4.53;4.13;;;23.40;78.10;;;;;;6011127;29;94206;-68
2023/05/29 12:43:18;;;;;;;4.68;4.20;;;23.40;78.10;;;;;;6014451;29;95639;-67
2023/05/29 12:46:20;;;;;;;5.55;4.32;;;23.40;78.20;;;;;;6011510;29;95035;-67
2023/05/29 12:49:25;;;;;;;4.40;4.00;;;23.40;78.30;;;;;;6008016;29;93840;-67
2023/05/29 12:52:27;;;;;;;4.93;4.50;;;23.40;78.40;;;;;;5999047;29;93860;-67
2023/05/29 12:55:33;;;;;;;4.47;3.92;;;23.40;78.30;;;;;;6002580;29;95102;-67
2023/05/29 12:58:35;;;;;;;5.13;4.30;;;23.40;78.30;;;;;;6018517;29;94131;-67
2023/05/29 13:01:38;;;;;;;7.90;4.53;;;23.40;78.40;;;;;;6019100;29;94173;-67
2023/05/29 13:04:40;;;;;;;5.07;3.80;;;23.40;78.40;;;;;;6017013;29;93967;-67
2023/05/29 13:07:42;;;;;;;4.93;4.28;;;23.40;78.40;;;;;;6019435;29;94421;-67
2023/05/29 13:10:46;;;;;;;4.70;3.95;;;23.40;78.40;;;;;;6011214;29;93333;-67
2023/05/29 13:13:48;;;;;;;4.50;4.00;;;23.40;78.40;;;;;;6008279;29;93927;-67
2023/05/29 13:16:50;;;;;;;5.35;4.68;;;23.40;78.40;;;;;;5999218;29;95032;-67
2023/05/29 13:19:52;;;;;;;4.85;4.45;;;23.40;78.40;;;;;;6007606;29;93397;-67
2023/05/29 13:22:54;;;;;;;5.18;4.40;;;23.40;78.30;;;;;;6014903;29;94055;-67
2023/05/29 13:25:58;;;;;;;5.30;4.35;;;23.40;78.30;;;;;;6018739;29;93438;-67
2023/05/29 13:29:00;;;;;;;4.65;4.18;;;23.40;78.40;;;;;;6017437;29;94180;-67
2023/05/29 13:32:02;;;;;;;5.22;4.53;;;23.40;78.40;;;;;;6002873;29;93007;-67
2023/05/29 13:35:05;;;;;;;4.70;3.90;;;23.40;78.40;;;;;;6004101;29;94087;-67
2023/05/29 13:38:07;;;;;;;4.60;3.95;;;23.40;78.40;;;;;;6005223;29;93318;-68
2023/05/29 13:41:10;;;;;;;4.60;4.18;;;23.40;78.30;;;;;;6006639;29;94496;-68
2023/05/29 13:44:12;;;;;;;5.28;4.70;;;23.40;78.20;;;;;;6007114;29;93615;-68
2023/05/29 13:47:15;;;;;;;5.40;4.28;;;23.40;78.10;;;;;;6004379;29;95020;-68
2023/05/29 13:50:17;;;;;;;4.57;4.10;;;23.40;78.00;;;;;;6007475;29;94436;-68
2023/05/29 13:53:18;;;;;;;4.63;4.00;;;23.40;78.10;;;;;;6008857;29;93201;-68
2023/05/29 13:56:22;;;;;;;5.18;4.38;;;23.40;78.40;;;;;;6013073;29;94213;-68
2023/05/29 13:59:24;;;;;;;4.70;4.20;;;23.40;78.40;;;;;;6009760;29;94207;-68
2023/05/29 14:02:26;;;;;;;5.25;4.50;;;23.40;78.40;;;;;;6027947;29;94230;-68
2023/05/29 14:05:28;;;;;;;6.32;4.45;;;23.40;78.40;;;;;;6006747;29;94125;-66
2023/05/29 14:08:30;;;;;;;8.13;4.70;;;23.40;78.40;;;;;;6003474;29;93733;-68
2023/05/29 14:11:36;;;;;;;7.50;4.65;;;23.40;78.90;;;;;;6006444;29;94147;-69
2023/05/29 14:14:38;;;;;;;8.32;5.32;;;23.40;79.00;;;;;;6008949;29;94194;-68
2023/05/29 14:17:41;;;;;;;7.22;4.75;;;23.40;79.10;;;;;;6005527;29;95076;-68
2023/05/29 14:20:47;;;;;;;9.82;4.70;;;23.40;79.10;;;;;;6004768;29;94280;-69
2023/05/29 14:23:49;;;;;;;8.10;5.25;;;23.50;79.30;;;;;;6014890;29;94247;-69
2023/05/29 14:26:53;;;;;;;8.20;5.00;;;23.40;79.40;;;;;;6018758;29;94117;-70
2023/05/29 14:29:55;;;;;;;7.57;5.35;;;23.40;79.50;;;;;;6008576;29;94107;-69
2023/05/29 14:32:57;;;;;;;8.32;5.57;;;23.50;79.70;;;;;;6025827;29;94434;-69
2023/05/29 14:35:59;;;;;;;11.32;7.22;;;23.50;79.80;;;;;;6006497;29;94411;-67
2023/05/29 14:39:01;;;;;;;13.48;7.90;;;23.50;79.90;;;;;;6002691;29;93481;-69
2023/05/29 14:42:06;;;;;;;13.07;8.30;;;23.50;80.00;;;;;;6009355;29;94588;-69
2023/05/29 14:45:09;;;;;;;16.33;8.77;;;23.40;80.00;;;;;;6004621;29;94588;-69
2023/05/29 14:48:11;;;;;;;20.17;10.70;;;23.40;80.00;;;;;;6001758;29;95111;-69
2023/05/29 14:51:15;;;;;;;17.27;10.00;;;23.40;80.00;;;;;;6003302;29;94074;-69
2023/05/29 14:54:17;;;;;;;14.80;9.45;;;23.40;80.10;;;;;;6004837;29;94330;-69
2023/05/29 14:57:20;;;;;;;19.27;9.43;;;23.50;80.40;;;;;;6010894;29;94177;-69
2023/05/29 15:00:22;;;;;;;13.85;8.45;;;23.50;80.40;;;;;;6006510;29;94203;-69
2023/05/29 15:03:26;;;;;;;16.15;9.60;;;23.50;80.50;;;;;;6002831;29;94201;-69
2023/05/29 15:06:28;;;;;;;17.05;9.75;;;23.50;80.60;;;;;;5998878;29;94732;-69
2023/05/29 15:09:31;;;;;;;19.38;9.93;;;23.50;80.60;;;;;;6005622;29;93956;-69
2023/05/29 15:12:34;;;;;;;18.67;10.07;;;23.50;80.60;;;;;;6023108;29;94468;-69
2023/05/29 15:15:36;;;;;;;18.90;10.57;;;23.50;80.60;;;;;;6021476;29;94108;-69
2023/05/29 15:18:38;;;;;;;19.52;10.80;;;23.40;80.60;;;;;;6014838;29;95047;-69
2023/05/29 15:21:40;;;;;;;22.30;10.43;;;23.50;80.70;;;;;;6009073;29;94042;-69
2023/05/29 15:24:42;;;;;;;21.20;10.85;;;23.50;80.70;;;;;;6008809;29;94051;-69
2023/05/29 15:27:45;;;;;;;21.15;10.80;;;23.50;80.80;;;;;;6029319;29;94185;-69
2023/05/29 15:30:47;;;;;;;22.90;10.90;;;23.50;80.80;;;;;;6013127;29;94201;-68
2023/05/29 15:33:50;;;;;;;22.90;11.13;;;23.50;80.80;;;;;;6003234;29;94581;-69
2023/05/29 15:36:52;;;;;;;20.55;10.57;;;23.50;80.80;;;;;;6010940;29;94144;-69
2023/05/29 15:39:57;;;;;;;24.23;10.57;;;23.50;80.80;;;;;;6004954;29;93802;-69
2023/05/29 15:43:00;;;;;;;21.95;11.18;;;23.50;80.80;;;;;;6005749;29;94597;-68
2023/05/29 15:46:03;;;;;;;21.38;10.88;;;23.50;80.80;;;;;;5998360;29;94103;-69
2023/05/29 15:49:05;;;;;;;21.48;10.32;;;23.50;80.80;;;;;;6020523;29;96331;-69
2023/05/29 15:52:07;;;;;;;20.90;10.27;;;23.50;80.80;;;;;;6006253;29;94148;-68